Time;durP1;ratioP1;P1;durP2;ratioP2;P2;SDS_P1;SDS_P2;PMS_P1;PMS_P2;Temp;Humidity;BMP_temperature;BMP_pressure;BME280_temperature;BME280_humidity;BME280_pressure;Samples;Min_cycle;Max_cycle;Signal;HPM_P1;HPM_P2
2023/08/10 00:01:10;;;;;;;7.37;6.70;;;15.20;99.90;;;;;;4974977;28;20215;-77
2023/08/10 00:03:36;;;;;;;7.40;6.80;;;15.10;99.90;;;;;;4972335;28;20438;-77
2023/08/10 00:06:04;;;;;;;7.73;7.03;;;15.10;99.90;;;;;;4985988;28;20211;-77
2023/08/10 00:08:31;;;;;;;8.00;7.40;;;15.20;99.90;;;;;;4962804;28;20270;-77
2023/08/10 00:10:59;;;;;;;7.20;6.70;;;15.10;99.90;;;;;;4973922;28;20204;-77
2023/08/10 00:13:26;;;;;;;7.70;7.20;;;15.20;99.90;;;;;;4975716;28;20228;-76
2023/08/10 00:15:53;;;;;;;7.60;7.10;;;15.10;99.90;;;;;;4973779;28;20203;-77
2023/08/10 00:18:20;;;;;;;7.60;7.10;;;15.10;99.90;;;;;;4968369;28;20224;-77
2023/08/10 00:20:47;;;;;;;7.60;7.10;;;15.10;99.90;;;;;;4989768;28;20211;-77
2023/08/10 00:23:13;;;;;;;7.73;7.23;;;15.00;99.90;;;;;;4971018;28;20671;-76
2023/08/10 00:25:40;;;;;;;8.13;7.43;;;15.00;99.90;;;;;;4965720;28;20217;-77
2023/08/10 00:28:09;;;;;;;7.77;7.17;;;15.00;99.90;;;;;;4980193;28;20224;-77
2023/08/10 00:30:36;;;;;;;7.60;7.00;;;14.90;99.90;;;;;;4960892;28;20208;-76
2023/08/10 00:33:03;;;;;;;7.30;6.80;;;14.80;99.90;;;;;;4972949;28;20211;-77
2023/08/10 00:35:30;;;;;;;7.50;7.00;;;14.80;99.90;;;;;;4974404;28;20222;-77
2023/08/10 00:37:57;;;;;;;7.60;7.10;;;14.70;99.90;;;;;;4975130;28;20231;-76
2023/08/10 00:40:24;;;;;;;7.47;6.97;;;14.70;99.90;;;;;;4982616;28;20211;-77
2023/08/10 00:42:51;;;;;;;7.77;7.17;;;14.60;99.90;;;;;;4964007;28;20192;-76
2023/08/10 00:45:19;;;;;;;8.10;7.50;;;14.50;99.90;;;;;;4971165;28;20201;-76
2023/08/10 00:47:46;;;;;;;7.87;7.37;;;14.50;99.90;;;;;;4973809;28;20228;-77
2023/08/10 00:50:14;;;;;;;7.70;7.20;;;14.40;99.90;;;;;;4974772;28;20218;-76
2023/08/10 00:52:40;;;;;;;7.60;7.10;;;14.40;99.90;;;;;;4970426;28;20206;-77
2023/08/10 00:55:08;;;;;;;8.20;7.40;;;14.30;99.90;;;;;;4970103;28;20207;-77
2023/08/10 00:57:35;;;;;;;7.50;7.00;;;14.30;99.90;;;;;;4964021;28;20225;-77
2023/08/10 01:00:05;;;;;;;7.30;6.77;;;14.30;99.90;;;;;;4966190;28;20199;-76
2023/08/10 01:02:34;;;;;;;7.77;7.17;;;14.20;99.90;;;;;;4973393;28;20204;-76
2023/08/10 01:05:01;;;;;;;8.47;7.87;;;14.20;99.90;;;;;;4981527;28;20257;-77
2023/08/10 01:07:40;;;;;;;7.50;7.00;;;14.10;99.90;;;;;;4994926;28;20219;-77
2023/08/10 01:10:11;;;;;;;8.23;7.63;;;14.10;99.90;;;;;;4975763;28;20216;-76
2023/08/10 01:12:44;;;;;;;7.73;7.23;;;14.10;99.90;;;;;;4970865;28;20203;-76
2023/08/10 01:15:17;;;;;;;8.07;7.50;;;14.10;99.90;;;;;;4982221;28;20196;-77
2023/08/10 01:17:51;;;;;;;7.60;7.10;;;14.10;99.90;;;;;;4984854;28;20720;-77
2023/08/10 01:20:20;;;;;;;7.83;7.33;;;14.10;99.90;;;;;;4968832;28;20579;-77
2023/08/10 01:22:55;;;;;;;7.87;7.30;;;14.00;99.90;;;;;;4960093;28;20190;-77
2023/08/10 01:25:25;;;;;;;7.77;7.27;;;14.00;99.90;;;;;;4972510;28;20603;-77
2023/08/10 01:27:52;;;;;;;7.90;7.40;;;14.00;99.90;;;;;;4973311;28;20301;-77
2023/08/10 01:30:20;;;;;;;8.07;7.53;;;13.90;99.90;;;;;;4967227;28;20246;-77
2023/08/10 01:32:47;;;;;;;8.13;7.50;;;13.90;99.90;;;;;;4970316;28;20209;-77
2023/08/10 01:35:14;;;;;;;8.03;7.47;;;13.90;99.90;;;;;;4963376;28;20634;-77
2023/08/10 01:37:41;;;;;;;7.90;7.30;;;13.80;99.90;;;;;;4963813;28;20223;-76
2023/08/10 01:40:09;;;;;;;8.77;8.13;;;13.70;99.90;;;;;;4966782;28;20737;-77
2023/08/10 01:42:38;;;;;;;8.00;7.40;;;13.70;99.90;;;;;;4969329;28;20191;-76
2023/08/10 01:45:05;;;;;;;8.17;7.57;;;13.70;99.90;;;;;;4979976;28;20201;-76
2023/08/10 01:47:37;;;;;;;8.10;7.50;;;13.60;99.90;;;;;;4971090;28;20293;-77
2023/08/10 01:50:07;;;;;;;8.20;7.60;;;13.70;99.90;;;;;;4965313;28;20258;-76
2023/08/10 01:52:38;;;;;;;8.70;8.00;;;13.60;99.90;;;;;;4964884;28;20221;-77
2023/08/10 01:55:07;;;;;;;8.63;7.90;;;13.50;99.90;;;;;;4964624;28;20227;-76
2023/08/10 01:57:34;;;;;;;8.30;7.70;;;13.50;99.90;;;;;;4971275;28;20238;-77
2023/08/10 02:00:06;;;;;;;8.27;7.70;;;13.50;99.90;;;;;;4968038;28;20675;-76
2023/08/10 02:02:42;;;;;;;7.90;7.40;;;13.50;99.90;;;;;;4964983;28;20204;-77
2023/08/10 02:05:12;;;;;;;8.33;7.73;;;13.50;99.90;;;;;;4978604;28;20198;-77
2023/08/10 02:07:41;;;;;;;8.40;7.83;;;13.40;99.90;;;;;;4963625;28;20227;-77
2023/08/10 02:10:09;;;;;;;8.70;7.97;;;13.40;99.90;;;;;;4962511;28;20207;-77
2023/08/10 02:12:37;;;;;;;8.30;7.70;;;13.40;99.90;;;;;;4975126;28;20266;-76
2023/08/10 02:15:06;;;;;;;8.47;7.87;;;13.40;99.90;;;;;;4964101;28;20219;-77
2023/08/10 02:17:35;;;;;;;7.67;7.17;;;13.40;99.90;;;;;;4991195;28;20218;-77
2023/08/10 02:20:09;;;;;;;8.70;8.10;;;13.40;99.90;;;;;;4974193;28;20194;-76
2023/08/10 02:22:35;;;;;;;8.67;8.10;;;13.30;99.90;;;;;;4967605;28;20204;-77
2023/08/10 02:25:02;;;;;;;8.20;7.70;;;13.30;99.90;;;;;;4968824;28;20189;-77
2023/08/10 02:27:29;;;;;;;8.80;8.20;;;13.20;99.90;;;;;;4962426;28;20313;-77
2023/08/10 02:29:56;;;;;;;8.77;8.17;;;13.20;99.90;;;;;;4983027;28;20198;-77
2023/08/10 02:32:24;;;;;;;8.90;8.30;;;13.20;99.90;;;;;;4975430;28;20672;-76
2023/08/10 02:34:51;;;;;;;9.50;8.80;;;13.20;99.90;;;;;;4965370;28;20246;-76
2023/08/10 02:37:18;;;;;;;8.50;7.80;;;13.20;99.90;;;;;;4965878;28;20231;-77
2023/08/10 02:39:45;;;;;;;8.77;8.07;;;13.20;99.90;;;;;;4968563;28;20250;-77
2023/08/10 02:42:12;;;;;;;8.93;8.23;;;13.20;99.90;;;;;;4969864;28;20216;-76
2023/08/10 02:44:39;;;;;;;8.43;7.83;;;13.20;99.90;;;;;;4966177;28;20198;-77
2023/08/10 02:47:06;;;;;;;8.90;8.10;;;13.10;99.90;;;;;;4966111;28;20230;-77
2023/08/10 02:49:34;;;;;;;8.70;8.10;;;13.10;99.90;;;;;;4969121;28;20195;-76
2023/08/10 02:52:01;;;;;;;8.57;7.97;;;13.10;99.90;;;;;;4968040;28;20202;-76
2023/08/10 02:54:28;;;;;;;9.10;8.17;;;13.00;99.90;;;;;;4972588;28;20222;-76
2023/08/10 02:56:55;;;;;;;8.57;7.97;;;13.00;99.90;;;;;;4980256;28;20218;-76
2023/08/10 02:59:22;;;;;;;9.17;8.47;;;13.00;99.90;;;;;;4977768;28;20213;-77
2023/08/10 03:01:49;;;;;;;8.67;8.03;;;13.00;99.90;;;;;;4972111;28;20197;-77
2023/08/10 03:04:16;;;;;;;8.53;7.83;;;12.90;99.90;;;;;;4978738;28;20223;-76
2023/08/10 03:06:44;;;;;;;9.17;8.47;;;12.90;99.90;;;;;;4963911;28;20221;-76
2023/08/10 03:09:11;;;;;;;9.10;8.50;;;12.90;99.90;;;;;;4983501;28;20257;-76
2023/08/10 03:11:38;;;;;;;9.07;8.37;;;12.90;99.90;;;;;;4991038;28;20672;-77
2023/08/10 03:14:06;;;;;;;9.00;8.40;;;12.90;99.90;;;;;;4974150;28;20290;-76
2023/08/10 03:16:33;;;;;;;9.50;8.80;;;13.00;99.90;;;;;;4978370;28;20238;-77
2023/08/10 03:19:00;;;;;;;9.03;8.33;;;12.90;99.90;;;;;;4975592;28;20201;-76
2023/08/10 03:21:28;;;;;;;9.30;8.70;;;13.00;99.90;;;;;;4972822;28;20663;-80
2023/08/10 03:23:56;;;;;;;8.87;8.17;;;12.90;99.90;;;;;;4966062;28;20193;-77
2023/08/10 03:26:24;;;;;;;9.23;8.50;;;12.90;99.90;;;;;;4979018;28;20245;-76
2023/08/10 03:28:51;;;;;;;8.70;8.10;;;12.90;99.90;;;;;;4981724;28;20202;-76
2023/08/10 03:31:18;;;;;;;8.67;8.07;;;12.90;99.90;;;;;;4966646;28;20202;-78
2023/08/10 03:33:45;;;;;;;9.33;8.73;;;12.80;99.90;;;;;;4974025;28;20220;-77
2023/08/10 03:36:11;;;;;;;8.93;8.37;;;12.80;99.90;;;;;;4966150;28;20205;-78
2023/08/10 03:38:38;;;;;;;9.60;8.90;;;12.70;99.90;;;;;;4973168;28;20287;-78
2023/08/10 03:41:06;;;;;;;9.63;8.83;;;12.70;99.90;;;;;;4969047;28;20206;-77
2023/08/10 03:43:33;;;;;;;8.90;8.40;;;12.60;99.90;;;;;;4981334;28;20271;-77
2023/08/10 03:46:03;;;;;;;8.93;8.33;;;12.70;99.90;;;;;;4972985;28;20668;-77
2023/08/10 03:48:30;;;;;;;9.40;8.80;;;12.60;99.90;;;;;;4992091;28;20563;-77
2023/08/10 03:50:57;;;;;;;10.17;9.47;;;12.60;99.90;;;;;;4978411;28;20271;-77
2023/08/10 03:53:24;;;;;;;8.97;8.37;;;12.60;99.90;;;;;;4974931;28;20202;-78
2023/08/10 03:55:51;;;;;;;9.33;8.63;;;12.60;99.90;;;;;;4975008;28;20202;-77
2023/08/10 03:58:19;;;;;;;9.53;8.87;;;12.50;99.90;;;;;;4975229;28;20305;-77
2023/08/10 04:00:46;;;;;;;10.90;10.13;;;12.50;99.90;;;;;;4966154;28;20272;-77
2023/08/10 04:03:15;;;;;;;10.03;9.30;;;12.50;99.90;;;;;;4970142;28;20202;-75
2023/08/10 04:05:42;;;;;;;10.37;9.60;;;12.50;99.90;;;;;;4979461;28;20202;-75
2023/08/10 04:08:10;;;;;;;10.50;9.80;;;12.50;99.90;;;;;;4980895;28;20221;-75
2023/08/10 04:10:37;;;;;;;10.57;9.77;;;12.50;99.90;;;;;;4981537;28;20205;-75
2023/08/10 04:13:04;;;;;;;11.37;10.47;;;12.50;99.90;;;;;;4984019;28;20256;-75
2023/08/10 04:15:33;;;;;;;11.10;10.20;;;12.50;99.90;;;;;;4979328;28;20584;-75
2023/08/10 04:18:01;;;;;;;9.97;9.27;;;12.50;99.90;;;;;;4983218;28;20366;-76
2023/08/10 04:20:29;;;;;;;10.40;9.60;;;12.50;99.90;;;;;;4974423;28;20648;-75
2023/08/10 04:22:57;;;;;;;10.70;10.00;;;12.50;99.90;;;;;;4963229;28;20732;-75
2023/08/10 04:25:24;;;;;;;10.40;9.70;;;12.50;99.90;;;;;;4975373;28;20204;-75
2023/08/10 04:27:51;;;;;;;11.30;10.40;;;12.60;99.90;;;;;;4962840;28;20210;-75
2023/08/10 04:30:18;;;;;;;11.57;10.57;;;12.50;99.90;;;;;;4969871;28;20213;-75
2023/08/10 04:32:47;;;;;;;10.83;10.13;;;12.60;99.90;;;;;;4970538;28;20214;-75
2023/08/10 04:35:14;;;;;;;11.33;10.50;;;12.60;99.90;;;;;;4969253;28;20220;-75
2023/08/10 04:37:41;;;;;;;10.70;10.00;;;12.60;99.90;;;;;;4964665;28;20258;-75
2023/08/10 04:40:10;;;;;;;11.40;10.53;;;12.70;99.90;;;;;;4984718;28;20687;-75
2023/08/10 04:42:39;;;;;;;11.70;10.80;;;12.60;99.90;;;;;;4970372;28;20531;-75
2023/08/10 04:45:09;;;;;;;11.10;10.40;;;12.70;99.90;;;;;;4968871;28;20732;-75
2023/08/10 04:47:36;;;;;;;10.60;9.90;;;12.70;99.90;;;;;;4961943;28;20253;-75
2023/08/10 04:50:05;;;;;;;10.90;10.20;;;12.70;99.90;;;;;;4971234;28;20202;-75
2023/08/10 04:52:32;;;;;;;11.37;10.30;;;12.80;99.90;;;;;;4981928;28;20676;-75
2023/08/10 04:54:59;;;;;;;10.30;9.70;;;12.80;99.90;;;;;;4973313;28;20222;-75
2023/08/10 04:57:26;;;;;;;10.43;9.73;;;12.80;99.90;;;;;;4976480;28;20245;-74
2023/08/10 04:59:53;;;;;;;10.20;9.50;;;13.00;99.90;;;;;;4979420;28;20202;-74
2023/08/10 05:02:19;;;;;;;9.97;9.37;;;13.00;99.90;;;;;;4973412;28;20227;-74
2023/08/10 05:04:46;;;;;;;10.73;10.03;;;13.10;99.90;;;;;;4972145;28;20227;-74
2023/08/10 05:07:14;;;;;;;11.10;10.30;;;13.20;99.90;;;;;;4964319;28;20218;-74
2023/08/10 05:09:41;;;;;;;10.53;9.83;;;13.30;99.90;;;;;;4975168;28;20230;-75
2023/08/10 05:12:08;;;;;;;11.13;10.33;;;13.30;99.90;;;;;;4988576;28;20209;-75
2023/08/10 05:14:35;;;;;;;10.90;10.20;;;13.30;99.90;;;;;;4973570;28;20268;-75
2023/08/10 05:17:02;;;;;;;9.87;9.17;;;13.40;99.90;;;;;;4973926;28;20229;-75
2023/08/10 05:19:29;;;;;;;11.67;10.87;;;13.50;99.90;;;;;;4965361;28;20665;-75
2023/08/10 05:21:56;;;;;;;10.40;9.60;;;13.70;99.90;;;;;;4975353;28;20191;-75
2023/08/10 05:24:24;;;;;;;7.93;7.33;;;13.90;99.90;;;;;;4977272;28;20199;-75
2023/08/10 05:26:51;;;;;;;4.47;4.07;;;14.00;99.90;;;;;;4968770;28;20409;-75
2023/08/10 05:29:17;;;;;;;9.63;9.00;;;14.20;99.90;;;;;;4972489;28;20226;-75
2023/08/10 05:31:44;;;;;;;4.50;4.10;;;14.40;99.90;;;;;;4974435;28;20199;-75
2023/08/10 05:34:11;;;;;;;4.70;4.23;;;14.50;99.90;;;;;;4973324;28;20573;-75
2023/08/10 05:36:38;;;;;;;4.50;4.10;;;14.50;99.90;;;;;;4967855;28;20278;-75
2023/08/10 05:39:05;;;;;;;4.53;4.13;;;14.70;99.90;;;;;;4973890;28;20212;-75
2023/08/10 05:41:33;;;;;;;5.23;4.73;;;14.80;99.90;;;;;;4971504;28;20208;-75
2023/08/10 05:44:00;;;;;;;3.90;3.60;;;15.00;99.90;;;;;;4967247;28;20612;-76
2023/08/10 05:46:27;;;;;;;4.53;3.40;;;15.20;99.90;;;;;;4975588;28;20225;-75
2023/08/10 05:48:54;;;;;;;5.33;3.50;;;15.40;99.90;;;;;;4976219;28;20703;-76
2023/08/10 05:51:21;;;;;;;6.37;4.30;;;15.70;99.90;;;;;;4971986;28;20225;-76
2023/08/10 05:53:48;;;;;;;4.37;3.97;;;16.00;99.90;;;;;;4966261;28;20697;-76
2023/08/10 05:56:14;;;;;;;8.80;8.13;;;16.30;99.90;;;;;;4960111;28;20272;-76
2023/08/10 05:58:43;;;;;;;7.67;7.17;;;16.40;99.90;;;;;;4974653;28;20660;-76
2023/08/10 06:01:09;;;;;;;7.00;6.47;;;16.40;99.90;;;;;;4964678;28;20580;-75
2023/08/10 06:03:36;;;;;;;4.40;4.00;;;16.30;99.90;;;;;;4970213;28;20202;-75
2023/08/10 06:06:06;;;;;;;6.70;6.10;;;16.20;99.90;;;;;;4963703;28;20265;-75
2023/08/10 06:08:33;;;;;;;4.90;4.50;;;16.20;99.90;;;;;;4988658;28;20209;-75
2023/08/10 06:11:01;;;;;;;8.03;7.40;;;16.20;99.90;;;;;;4986136;28;20193;-75
2023/08/10 06:13:28;;;;;;;9.90;9.20;;;16.20;99.90;;;;;;4977692;28;20198;-76
2023/08/10 06:15:56;;;;;;;9.13;8.53;;;16.40;99.90;;;;;;4970510;28;20238;-76
2023/08/10 06:18:23;;;;;;;8.27;7.67;;;16.80;99.90;;;;;;4978319;28;20260;-76
2023/08/10 06:20:51;;;;;;;9.20;8.50;;;17.10;99.90;;;;;;4972895;28;20216;-76
2023/08/10 06:23:18;;;;;;;9.17;8.47;;;17.20;99.90;;;;;;4991116;28;20747;-75
2023/08/10 06:25:47;;;;;;;8.93;8.13;;;17.30;99.90;;;;;;4974347;28;20641;-76
2023/08/10 06:28:13;;;;;;;9.00;8.40;;;17.40;99.90;;;;;;4979396;28;20572;-76
2023/08/10 06:30:41;;;;;;;9.73;8.93;;;17.30;99.90;;;;;;4978452;28;20585;-75
2023/08/10 06:33:11;;;;;;;9.23;8.60;;;17.30;99.90;;;;;;4983897;28;20300;-76
2023/08/10 06:35:38;;;;;;;10.07;9.37;;;17.30;99.90;;;;;;4981853;28;20230;-76
2023/08/10 06:38:05;;;;;;;9.83;9.13;;;17.30;99.90;;;;;;4978231;28;20221;-76
2023/08/10 06:40:32;;;;;;;9.60;8.90;;;17.30;99.90;;;;;;4974729;28;20198;-76
2023/08/10 06:42:59;;;;;;;10.73;9.73;;;17.40;99.90;;;;;;4969317;28;20198;-76
2023/08/10 06:45:39;;;;;;;4.40;3.77;;;17.40;99.90;;;;;;4969785;28;20554;-76
2023/08/10 06:48:06;;;;;;;4.00;3.60;;;17.40;99.90;;;;;;4974787;28;20235;-76
2023/08/10 06:50:35;;;;;;;3.97;3.60;;;17.40;99.90;;;;;;4972305;28;20234;-75
2023/08/10 06:53:02;;;;;;;8.00;7.50;;;17.40;99.90;;;;;;4969032;28;20211;-75
2023/08/10 06:55:30;;;;;;;7.53;6.87;;;17.50;99.90;;;;;;4971020;28;20222;-76
2023/08/10 06:57:57;;;;;;;5.40;4.00;;;17.40;99.90;;;;;;4971171;28;20293;-76
2023/08/10 07:00:24;;;;;;;4.10;3.70;;;17.40;99.90;;;;;;4964965;28;20198;-76
2023/08/10 07:02:53;;;;;;;4.60;4.10;;;17.40;99.90;;;;;;4974577;28;20643;-76
2023/08/10 07:05:21;;;;;;;5.93;4.80;;;17.50;99.90;;;;;;4957167;28;20204;-75
2023/08/10 07:07:49;;;;;;;9.07;8.17;;;17.70;99.90;;;;;;4988138;28;20270;-76
2023/08/10 07:10:16;;;;;;;4.10;3.70;;;17.80;99.90;;;;;;4972089;28;20282;-76
2023/08/10 07:12:43;;;;;;;9.73;9.03;;;17.90;99.90;;;;;;4973755;28;20199;-76
2023/08/10 07:15:11;;;;;;;5.17;4.20;;;18.10;99.90;;;;;;4972755;28;20220;-76
2023/08/10 07:17:38;;;;;;;4.70;4.17;;;18.20;99.90;;;;;;4967370;28;20668;-76
2023/08/10 07:20:08;;;;;;;10.53;9.40;;;18.20;99.90;;;;;;4961121;28;20279;-76
2023/08/10 07:22:35;;;;;;;6.73;4.50;;;18.30;99.90;;;;;;4972717;28;20783;-76
2023/08/10 07:25:05;;;;;;;5.50;4.73;;;18.40;99.90;;;;;;4972251;28;20197;-76
2023/08/10 07:27:33;;;;;;;4.03;3.63;;;18.40;99.90;;;;;;4979857;28;20220;-82
2023/08/10 07:30:00;;;;;;;9.37;8.77;;;18.70;99.90;;;;;;4986457;28;20305;-79
2023/08/10 07:32:28;;;;;;;4.70;4.30;;;18.80;99.90;;;;;;4974472;28;20208;-79
2023/08/10 07:34:54;;;;;;;5.03;3.77;;;18.80;99.90;;;;;;4976626;28;20254;-80
2023/08/10 07:37:21;;;;;;;4.07;3.67;;;18.80;99.90;;;;;;4976611;28;20225;-80
2023/08/10 07:39:48;;;;;;;9.37;8.77;;;18.90;99.90;;;;;;4969931;28;20566;-77
2023/08/10 07:42:16;;;;;;;11.23;10.30;;;19.00;99.90;;;;;;4969017;28;20214;-79
2023/08/10 07:44:43;;;;;;;11.60;10.80;;;18.90;99.90;;;;;;4966082;28;20738;-82
2023/08/10 07:47:10;;;;;;;8.17;7.47;;;19.20;99.90;;;;;;4957748;28;20241;-75
2023/08/10 07:49:37;;;;;;;9.90;9.30;;;19.30;99.90;;;;;;4972977;28;20189;-75
2023/08/10 07:52:04;;;;;;;9.40;8.73;;;19.60;99.90;;;;;;4964437;28;20766;-75
2023/08/10 07:54:31;;;;;;;10.53;9.63;;;19.70;99.90;;;;;;4982207;28;20637;-76
2023/08/10 07:56:58;;;;;;;5.83;5.20;;;19.90;99.90;;;;;;4994299;28;20317;-75
2023/08/10 07:59:26;;;;;;;5.80;4.13;;;19.90;99.90;;;;;;4979676;28;20197;-76
2023/08/10 08:01:53;;;;;;;9.93;9.23;;;19.90;99.90;;;;;;4971041;28;20236;-78
2023/08/10 08:04:19;;;;;;;4.70;4.30;;;20.00;99.90;;;;;;4978610;28;20195;-79
2023/08/10 08:06:46;;;;;;;4.77;4.27;;;20.10;99.90;;;;;;4979727;28;20276;-76
2023/08/10 08:09:13;;;;;;;8.87;8.20;;;20.40;99.90;;;;;;4970903;28;20261;-76
2023/08/10 08:11:41;;;;;;;10.23;9.37;;;20.60;99.90;;;;;;4980870;28;20205;-76
2023/08/10 08:14:08;;;;;;;10.60;9.70;;;20.70;99.90;;;;;;4974297;28;20203;-76
2023/08/10 08:16:37;;;;;;;10.77;10.07;;;20.70;99.90;;;;;;4983903;28;20671;-76
2023/08/10 08:19:03;;;;;;;10.80;9.90;;;20.90;99.90;;;;;;4967375;28;20197;-76
2023/08/10 08:21:31;;;;;;;10.23;9.53;;;21.00;99.90;;;;;;4975262;28;20204;-76
2023/08/10 08:23:59;;;;;;;10.30;9.60;;;21.00;99.90;;;;;;4964561;28;20234;-76
2023/08/10 08:26:27;;;;;;;6.00;5.40;;;21.30;99.90;;;;;;4992000;28;20209;-77
2023/08/10 08:28:54;;;;;;;10.63;9.83;;;21.30;99.90;;;;;;4978434;28;20229;-76
2023/08/10 08:31:21;;;;;;;10.27;9.67;;;21.50;99.90;;;;;;4972900;28;20244;-76
2023/08/10 08:33:50;;;;;;;10.13;9.37;;;21.60;99.90;;;;;;4981915;28;20209;-81
2023/08/10 08:36:17;;;;;;;9.77;8.93;;;21.90;99.90;;;;;;4975585;28;20241;-76
2023/08/10 08:38:44;;;;;;;5.33;4.93;;;22.00;99.90;;;;;;4980158;28;20198;-76
2023/08/10 08:41:11;;;;;;;5.70;5.20;;;22.10;99.90;;;;;;4973298;28;20284;-76
2023/08/10 08:43:39;;;;;;;10.00;9.10;;;22.30;99.90;;;;;;4977242;28;20257;-76
2023/08/10 08:46:07;;;;;;;9.80;9.10;;;23.00;99.90;;;;;;4973605;28;20234;-81
2023/08/10 08:48:35;;;;;;;8.43;7.83;;;23.30;99.90;;;;;;4974152;28;20206;-80
2023/08/10 08:51:06;;;;;;;8.30;7.80;;;22.80;99.90;;;;;;4979685;28;20205;-81
2023/08/10 08:53:34;;;;;;;9.90;8.90;;;23.10;99.90;;;;;;4978573;28;20672;-78
2023/08/10 08:56:01;;;;;;;8.43;7.67;;;23.10;99.90;;;;;;4977483;28;20292;-79
2023/08/10 08:58:28;;;;;;;8.47;7.87;;;23.30;99.90;;;;;;4979151;28;20202;-84
2023/08/10 09:00:55;;;;;;;9.63;8.93;;;23.40;99.90;;;;;;4974827;28;20201;-79
2023/08/10 09:03:24;;;;;;;7.43;6.67;;;23.60;99.90;;;;;;4982079;28;20197;-80
2023/08/10 09:05:52;;;;;;;9.20;8.50;;;23.70;99.90;;;;;;4975724;28;20202;-80
2023/08/10 09:08:21;;;;;;;6.10;5.57;;;23.80;99.90;;;;;;4980606;28;20277;-79
2023/08/10 09:10:49;;;;;;;7.83;7.23;;;24.00;99.90;;;;;;4976425;28;20293;-80
2023/08/10 09:13:18;;;;;;;9.23;8.43;;;24.20;99.90;;;;;;4973007;28;20636;-81
2023/08/10 09:15:45;;;;;;;5.10;4.70;;;24.50;99.90;;;;;;4979041;28;20220;-80
2023/08/10 09:18:12;;;;;;;7.57;6.87;;;24.70;99.90;;;;;;4989847;28;20228;-80
2023/08/10 09:20:39;;;;;;;9.27;8.60;;;25.30;99.90;;;;;;4977491;28;20209;-80
2023/08/10 09:23:06;;;;;;;5.13;4.70;;;25.60;99.90;;;;;;4975781;28;20210;-81
2023/08/10 09:25:39;;;;;;;9.10;8.30;;;25.60;99.90;;;;;;4978369;28;20209;-80
2023/08/10 09:28:10;;;;;;;4.50;4.10;;;25.80;99.90;;;;;;4976180;28;20722;-80
2023/08/10 09:30:37;;;;;;;4.27;3.87;;;26.30;99.90;;;;;;4989161;28;20194;-80
2023/08/10 09:33:04;;;;;;;6.00;5.50;;;26.50;99.90;;;;;;4988742;28;20253;-81
2023/08/10 09:35:32;;;;;;;8.43;7.83;;;26.40;99.90;;;;;;4978278;28;20708;-82
2023/08/10 09:38:03;;;;;;;10.07;9.37;;;26.40;99.90;;;;;;4962626;28;20229;-79
2023/08/10 09:40:30;;;;;;;9.40;8.80;;;26.50;99.90;;;;;;4959752;28;20208;-81
2023/08/10 09:42:59;;;;;;;10.13;9.50;;;26.20;99.90;;;;;;4967190;28;20756;-81
2023/08/10 09:45:25;;;;;;;11.03;10.13;;;26.10;99.90;;;;;;4963997;28;20205;-80
2023/08/10 09:47:52;;;;;;;9.33;8.73;;;26.20;99.90;;;;;;5043712;22;20665;-83
2023/08/10 09:50:19;;;;;;;9.50;8.90;;;26.10;99.90;;;;;;5020444;28;20195;-84
2023/08/10 09:52:47;;;;;;;7.77;7.23;;;26.40;99.90;;;;;;5013893;28;20208;-83
2023/08/10 09:55:14;;;;;;;9.00;8.30;;;26.40;99.90;;;;;;5021427;28;20658;-83
2023/08/10 09:57:44;;;;;;;8.93;8.33;;;26.40;99.90;;;;;;5012803;28;20666;-83
2023/08/10 10:00:18;;;;;;;9.83;9.00;;;26.50;99.90;;;;;;5002782;28;20220;-83
2023/08/10 10:02:45;;;;;;;9.10;8.40;;;26.00;99.90;;;;;;5008322;28;20204;-83
2023/08/10 10:05:12;;;;;;;8.73;7.93;;;26.00;99.90;;;;;;5008273;28;20676;-83
2023/08/10 10:07:40;;;;;;;9.00;8.33;;;26.00;99.90;;;;;;5012041;28;20729;-84
2023/08/10 10:10:12;;;;;;;8.83;8.23;;;25.40;99.90;;;;;;5012141;28;20224;-83
2023/08/10 10:12:39;;;;;;;9.20;8.60;;;25.50;99.90;;;;;;5012682;28;20188;-84
2023/08/10 10:15:08;;;;;;;9.13;8.53;;;25.60;99.90;;;;;;5011272;28;20247;-81
2023/08/10 10:17:36;;;;;;;8.47;7.87;;;25.90;99.90;;;;;;5009050;28;20220;-84
2023/08/10 10:20:11;;;;;;;8.37;7.77;;;26.30;99.90;;;;;;5013922;28;20796;-84
2023/08/10 10:22:38;;;;;;;8.50;7.90;;;26.60;99.90;;;;;;5022025;28;20581;-82
2023/08/10 10:25:06;;;;;;;9.17;8.37;;;26.60;99.90;;;;;;5016921;28;20671;-83
2023/08/10 10:27:40;;;;;;;9.47;8.77;;;26.60;99.90;;;;;;5007857;28;20297;-83
2023/08/10 10:30:15;;;;;;;8.03;7.40;;;26.30;99.90;;;;;;5006890;28;20204;-81
2023/08/10 10:36:10;;;;;;;9.37;8.60;;;26.10;99.90;;;;;;4974368;28;20311;-81
2023/08/10 10:38:39;;;;;;;9.10;8.50;;;25.80;99.90;;;;;;5009494;28;20228;-82
2023/08/10 10:41:10;;;;;;;8.70;8.20;;;26.10;99.90;;;;;;5000724;28;20521;-82
2023/08/10 10:43:37;;;;;;;8.50;7.90;;;26.20;99.90;;;;;;5008030;28;20565;-83
2023/08/10 10:46:04;;;;;;;8.60;8.00;;;26.40;99.90;;;;;;5010310;28;20201;-83
2023/08/10 10:48:37;;;;;;;7.90;7.30;;;26.50;99.90;;;;;;4997856;28;20260;-83
2023/08/10 10:51:05;;;;;;;8.53;7.93;;;26.30;99.90;;;;;;5002522;28;20252;-83
2023/08/10 10:53:33;;;;;;;8.70;8.10;;;26.30;99.90;;;;;;5005482;28;20227;-85
2023/08/10 10:56:00;;;;;;;8.70;8.10;;;26.30;99.90;;;;;;5021640;28;20240;-85
2023/08/10 10:58:29;;;;;;;5.63;5.23;;;26.10;99.90;;;;;;5016883;28;20235;-84
2023/08/10 11:00:56;;;;;;;8.13;7.47;;;26.00;99.90;;;;;;5009581;28;20205;-84
2023/08/10 11:03:22;;;;;;;9.10;8.40;;;25.50;99.90;;;;;;5015423;28;20265;-84
2023/08/10 11:05:51;;;;;;;8.40;7.90;;;25.30;99.90;;;;;;5008442;28;20269;-85
2023/08/10 11:08:18;;;;;;;8.63;7.90;;;25.20;99.90;;;;;;5014148;28;20221;-84
2023/08/10 11:10:44;;;;;;;8.37;7.83;;;25.10;99.90;;;;;;5026012;28;20263;-83
2023/08/10 11:13:11;;;;;;;9.07;8.47;;;25.00;99.90;;;;;;5011787;28;20200;-85
2023/08/10 11:15:38;;;;;;;6.83;6.23;;;25.00;99.90;;;;;;5020790;28;20197;-83
2023/08/10 11:18:11;;;;;;;9.20;8.60;;;24.90;99.90;;;;;;5018100;28;20228;-81
2023/08/10 11:20:43;;;;;;;5.30;3.50;;;24.50;99.90;;;;;;5022878;28;20251;-81
2023/08/10 11:23:11;;;;;;;7.00;6.47;;;24.80;99.90;;;;;;5023963;28;20205;-84
2023/08/10 11:25:49;;;;;;;7.90;7.40;;;24.90;99.90;;;;;;5014012;28;20583;-84
2023/08/10 11:28:18;;;;;;;8.80;8.20;;;24.80;99.90;;;;;;5012131;28;20217;-85
2023/08/10 11:30:45;;;;;;;8.77;8.20;;;25.10;99.90;;;;;;5021646;28;20239;-83
2023/08/10 11:33:13;;;;;;;9.20;8.60;;;25.10;99.90;;;;;;5022208;28;20210;-82
2023/08/10 11:35:44;;;;;;;8.97;8.37;;;25.10;99.90;;;;;;5019370;28;20258;-84
2023/08/10 11:38:12;;;;;;;8.43;7.73;;;25.20;99.90;;;;;;5024208;28;20255;-85
2023/08/10 11:40:39;;;;;;;5.20;4.83;;;25.10;99.90;;;;;;5010655;28;20215;-81
2023/08/10 11:43:10;;;;;;;5.10;4.73;;;24.60;99.90;;;;;;5023979;28;20192;-80
2023/08/10 11:45:38;;;;;;;5.00;4.60;;;24.40;99.90;;;;;;5025111;28;20224;-83
2023/08/10 11:48:09;;;;;;;8.90;8.33;;;24.20;99.90;;;;;;5017985;28;20227;-83
2023/08/10 11:50:38;;;;;;;8.03;7.53;;;24.10;99.90;;;;;;5019098;28;20262;-83
2023/08/10 11:53:14;;;;;;;4.90;4.60;;;24.20;99.90;;;;;;5016780;28;20443;-82
2023/08/10 11:55:47;;;;;;;3.40;3.10;;;24.40;99.90;;;;;;5008408;28;20505;-82
2023/08/10 11:58:15;;;;;;;7.03;6.53;;;24.40;99.90;;;;;;5014972;28;20228;-82
2023/08/10 12:00:43;;;;;;;3.28;2.97;;;24.60;99.90;;;;;;5016028;28;20435;-81
2023/08/10 12:03:12;;;;;;;3.80;3.50;;;24.70;99.90;;;;;;5006343;28;20220;-83
2023/08/10 12:05:41;;;;;;;7.80;7.30;;;24.90;99.90;;;;;;5011811;28;20201;-83
2023/08/10 12:08:10;;;;;;;7.40;6.77;;;24.90;99.90;;;;;;5008245;28;20315;-83
2023/08/10 12:10:38;;;;;;;6.97;6.37;;;24.80;99.90;;;;;;5008393;28;20564;-83
2023/08/10 12:13:08;;;;;;;7.47;6.97;;;24.80;99.90;;;;;;5005989;28;20205;-83
2023/08/10 12:15:37;;;;;;;6.10;5.70;;;24.70;99.90;;;;;;5007216;28;20407;-82
2023/08/10 12:18:05;;;;;;;8.20;7.60;;;24.80;99.90;;;;;;5009697;28;20601;-81
2023/08/10 12:20:32;;;;;;;7.97;7.47;;;24.50;99.90;;;;;;5009623;28;20255;-83
2023/08/10 12:22:59;;;;;;;8.37;7.77;;;24.40;99.90;;;;;;5012955;28;20201;-82
2023/08/10 12:25:26;;;;;;;8.07;7.50;;;24.50;99.90;;;;;;5008872;28;20204;-82
2023/08/10 12:27:53;;;;;;;6.93;6.43;;;24.40;99.90;;;;;;5012722;28;20274;-81
2023/08/10 12:30:24;;;;;;;7.93;7.40;;;24.40;99.90;;;;;;5019226;28;20295;-82
2023/08/10 12:32:51;;;;;;;3.40;3.10;;;24.60;99.90;;;;;;5012242;28;20193;-84
2023/08/10 12:35:18;;;;;;;7.75;7.20;;;24.40;99.90;;;;;;5004222;28;20439;-81
2023/08/10 12:37:47;;;;;;;8.60;8.00;;;24.40;99.90;;;;;;5018571;28;20601;-83
2023/08/10 12:40:14;;;;;;;8.10;7.50;;;24.40;99.90;;;;;;5011625;28;20208;-78
2023/08/10 12:42:43;;;;;;;3.30;3.00;;;24.40;99.90;;;;;;5009009;28;20197;-83
2023/08/10 12:45:10;;;;;;;3.70;3.17;;;24.40;99.90;;;;;;5011975;28;20197;-83
2023/08/10 12:47:39;;;;;;;3.50;3.20;;;24.50;99.90;;;;;;5016324;28;20518;-83
2023/08/10 12:50:07;;;;;;;3.80;3.40;;;24.40;99.90;;;;;;5003974;28;20450;-79
2023/08/10 12:52:34;;;;;;;4.73;4.33;;;24.40;99.90;;;;;;5007088;28;20201;-81